createdAt,value
2022-07-31T00:00:13.697Z,94948.13
2022-07-31T00:02:40.479Z,94950.28
2022-07-31T00:05:07.995Z,94949.25
2022-07-31T00:07:34.795Z,94938.88
2022-07-31T00:10:01.805Z,94946.81
2022-07-31T00:12:28.633Z,94939.19
2022-07-31T00:14:55.586Z,94946.25
2022-07-31T00:17:22.377Z,94934.91
2022-07-31T00:19:49.168Z,94942.84
2022-07-31T00:22:16.166Z,94939.97
2022-07-31T00:24:43.011Z,94943.81
2022-07-31T00:27:10.946Z,94935.00
2022-07-31T00:29:38.720Z,94930.97
2022-07-31T00:32:06.183Z,94939.72
2022-07-31T00:34:33.112Z,94932.94
2022-07-31T00:37:00.073Z,94931.84
2022-07-31T00:39:27.106Z,94925.81
2022-07-31T00:41:55.183Z,94935.03
2022-07-31T00:44:22.018Z,94927.00
2022-07-31T00:46:49.961Z,94934.66
2022-07-31T00:49:16.822Z,94932.38
2022-07-31T00:51:43.709Z,94934.38
2022-07-31T00:54:22.357Z,94927.75
2022-07-31T00:56:51.447Z,94929.75
2022-07-31T00:59:24.474Z,94922.75
2022-07-31T01:01:51.886Z,94927.41
2022-07-31T01:04:19.889Z,94924.75
2022-07-31T01:06:47.311Z,94925.53
2022-07-31T01:09:15.159Z,94924.44
2022-07-31T01:11:50.995Z,94914.66
2022-07-31T01:14:20.689Z,94922.59
2022-07-31T01:16:50.363Z,94919.66
2022-07-31T01:19:42.712Z,94919.88
2022-07-31T01:22:42.773Z,94920.88
2022-07-31T01:25:23.741Z,94924.59
2022-07-31T01:28:30.623Z,94921.53
2022-07-31T01:31:25.638Z,94926.16
2022-07-31T01:34:11.694Z,94923.16
2022-07-31T01:36:46.493Z,94922.13
2022-07-31T01:39:13.455Z,94920.97
2022-07-31T01:41:43.574Z,94923.16
2022-07-31T01:44:14.203Z,94912.84
2022-07-31T01:46:43.848Z,94911.94
2022-07-31T01:49:11.969Z,94901.44
2022-07-31T01:51:41.119Z,94916.69
2022-07-31T01:54:08.987Z,94912.03
2022-07-31T01:56:36.751Z,94893.97
2022-07-31T01:59:05.278Z,94910.13
2022-07-31T02:01:53.511Z,94914.13
2022-07-31T02:04:21.814Z,94910.22
2022-07-31T02:06:50.449Z,94901.78
2022-07-31T02:09:20.857Z,94909.84
2022-07-31T02:11:54.379Z,94912.59
2022-07-31T02:14:36.293Z,94909.66
2022-07-31T02:17:03.537Z,94911.47
2022-07-31T02:19:31.141Z,94917.75
2022-07-31T02:21:59.951Z,94924.47
2022-07-31T02:24:26.938Z,94918.19
2022-07-31T02:26:54.485Z,94915.38
2022-07-31T02:29:23.095Z,94910.38
2022-07-31T02:32:02.502Z,94909.09
2022-07-31T02:34:32.596Z,94918.59
2022-07-31T02:37:02.281Z,94924.06
2022-07-31T02:39:31.356Z,94921.13
2022-07-31T02:42:01.910Z,94914.09
2022-07-31T02:44:32.387Z,94907.25
2022-07-31T02:47:02.571Z,94915.56
2022-07-31T02:49:31.950Z,94917.22
2022-07-31T02:51:58.977Z,94903.75
2022-07-31T02:54:26.484Z,94911.47
2022-07-31T02:56:53.781Z,94911.56
2022-07-31T02:59:22.461Z,94915.84
2022-07-31T03:01:49.237Z,94911.00
2022-07-31T03:04:16.101Z,94913.75
2022-07-31T03:06:43.524Z,94897.25
2022-07-31T03:09:10.423Z,94895.59
2022-07-31T03:11:37.409Z,94901.63
2022-07-31T03:14:05.598Z,94906.19
2022-07-31T03:16:34.181Z,94905.81
2022-07-31T03:19:03.068Z,94905.91
2022-07-31T03:21:31.597Z,94896.31
2022-07-31T03:23:59.908Z,94898.84
2022-07-31T03:26:27.272Z,94900.53
2022-07-31T03:28:54.515Z,94904.44
2022-07-31T03:31:22.317Z,94902.16
2022-07-31T03:33:49.057Z,94900.00
2022-07-31T03:36:16.108Z,94899.97
2022-07-31T03:38:46.489Z,94899.09
2022-07-31T03:41:16.153Z,94906.72
2022-07-31T03:43:47.781Z,94909.38
2022-07-31T03:46:20.566Z,94904.53
2022-07-31T03:48:47.994Z,94906.63
2022-07-31T03:51:15.982Z,94903.34
2022-07-31T03:53:44.208Z,94899.34
2022-07-31T03:56:11.844Z,94911.47
2022-07-31T03:58:39.029Z,94917.75
2022-07-31T04:01:08.929Z,94907.66
2022-07-31T04:03:38.926Z,94917.03
2022-07-31T04:06:05.796Z,94917.56
2022-07-31T04:08:34.073Z,94916.00
2022-07-31T04:11:00.920Z,94917.06
2022-07-31T04:13:28.550Z,94911.78
2022-07-31T04:15:55.364Z,94908.00
2022-07-31T04:18:22.116Z,94912.81
2022-07-31T04:20:48.937Z,94904.00
2022-07-31T04:23:16.773Z,94913.50
2022-07-31T04:25:43.560Z,94909.66
2022-07-31T04:28:10.381Z,94914.09
2022-07-31T04:30:37.834Z,94918.59
2022-07-31T04:33:04.671Z,94917.50
2022-07-31T04:35:31.437Z,94914.72
2022-07-31T04:37:58.194Z,94919.59
2022-07-31T04:40:26.467Z,94920.59
2022-07-31T04:42:56.829Z,94920.41
2022-07-31T04:45:23.634Z,94921.03
2022-07-31T04:47:50.529Z,94923.13
2022-07-31T04:50:17.362Z,94920.66
2022-07-31T04:52:44.131Z,94923.84
2022-07-31T04:55:10.979Z,94926.25
2022-07-31T04:57:37.940Z,94923.34
2022-07-31T05:00:09.600Z,94928.97
2022-07-31T05:02:37.332Z,94926.28
2022-07-31T05:05:04.975Z,94929.63
2022-07-31T05:07:31.721Z,94913.22
2022-07-31T05:09:58.848Z,94925.97
2022-07-31T05:12:26.224Z,94919.16
2022-07-31T05:14:53.612Z,94922.50
2022-07-31T05:17:20.614Z,94924.06
2022-07-31T05:19:47.459Z,94923.31
2022-07-31T05:22:14.290Z,94909.97
2022-07-31T05:24:43.124Z,94914.81
2022-07-31T05:27:09.946Z,94920.63
2022-07-31T05:29:36.751Z,94917.56
2022-07-31T05:32:03.729Z,94910.59
2022-07-31T05:34:30.904Z,94902.97
2022-07-31T05:37:01.511Z,94908.09
2022-07-31T05:39:29.250Z,94910.88
2022-07-31T05:41:56.074Z,94904.75
2022-07-31T05:44:22.931Z,94905.94
2022-07-31T05:49:16.365Z,94911.34
2022-07-31T05:51:45.590Z,94912.88
2022-07-31T05:54:12.400Z,94907.63
2022-07-31T05:56:39.168Z,94906.72
2022-07-31T05:59:05.965Z,94906.44
2022-07-31T06:01:32.863Z,94918.38
2022-07-31T06:03:59.717Z,94908.84
2022-07-31T06:06:26.506Z,94899.94
2022-07-31T06:08:53.340Z,94915.16
2022-07-31T06:11:20.567Z,94910.69
2022-07-31T06:13:47.401Z,94902.88
2022-07-31T06:16:15.436Z,94914.88
2022-07-31T06:18:42.869Z,94921.88
2022-07-31T06:21:09.952Z,94917.00
2022-07-31T06:23:37.013Z,94918.66
2022-07-31T06:26:04.321Z,94921.50
2022-07-31T06:28:47.976Z,94925.03
2022-07-31T06:31:20.839Z,94924.84
2022-07-31T06:33:48.860Z,94930.41
2022-07-31T06:36:18.431Z,94928.00
2022-07-31T06:38:46.133Z,94928.81
2022-07-31T06:41:36.352Z,94924.06
2022-07-31T06:44:03.661Z,94923.06
2022-07-31T06:46:30.473Z,94923.66
2022-07-31T06:48:57.545Z,94924.44
2022-07-31T06:51:32.347Z,94924.84
2022-07-31T06:54:00.762Z,94918.69
2022-07-31T06:56:29.161Z,94922.06
2022-07-31T06:58:56.369Z,94916.06
2022-07-31T07:01:23.354Z,94912.13
2022-07-31T07:03:50.519Z,94922.53
2022-07-31T07:06:18.282Z,94919.69
2022-07-31T07:08:45.835Z,94923.72
2022-07-31T07:11:12.932Z,94917.03
2022-07-31T07:13:45.829Z,94922.22
2022-07-31T07:16:14.449Z,94922.63
2022-07-31T07:18:41.939Z,94932.16
2022-07-31T07:21:09.057Z,94927.25
2022-07-31T07:23:36.025Z,94932.91
2022-07-31T07:26:03.480Z,94923.78
2022-07-31T07:28:31.413Z,94922.63
2022-07-31T07:30:58.597Z,94909.88
2022-07-31T07:33:40.651Z,94910.94
2022-07-31T07:36:23.864Z,94908.69
2022-07-31T07:38:55.430Z,94903.97
2022-07-31T07:41:24.061Z,94895.56
2022-07-31T07:43:51.697Z,94909.16
2022-07-31T07:46:21.081Z,94899.84
2022-07-31T07:48:49.254Z,94911.03
2022-07-31T07:51:16.212Z,94897.16
2022-07-31T07:53:42.998Z,94893.56
2022-07-31T07:56:09.782Z,94890.44
2022-07-31T07:58:36.580Z,94898.81
2022-07-31T08:01:03.567Z,94894.13
2022-07-31T08:03:49.331Z,94891.47
2022-07-31T08:06:17.201Z,94885.84
2022-07-31T08:08:44.055Z,94888.50
2022-07-31T08:11:10.904Z,94890.66
2022-07-31T08:13:49.342Z,94883.53
2022-07-31T08:16:17.658Z,94891.28
2022-07-31T08:18:44.529Z,94885.53
2022-07-31T08:21:11.537Z,94891.53
2022-07-31T08:23:38.589Z,94887.56
2022-07-31T08:26:08.386Z,94894.00
2022-07-31T08:28:36.254Z,94892.22
2022-07-31T08:31:03.419Z,94889.88
2022-07-31T08:33:30.370Z,94882.19
2022-07-31T08:35:57.155Z,94883.09
2022-07-31T08:38:24.212Z,94884.44
2022-07-31T08:40:51.024Z,94880.72
2022-07-31T08:46:05.257Z,94881.75
2022-07-31T08:48:33.445Z,94886.63
2022-07-31T08:51:03.853Z,94889.72
2022-07-31T08:53:33.176Z,94887.38
2022-07-31T08:56:00.628Z,94888.91
2022-07-31T08:58:27.415Z,94892.47
2022-07-31T09:00:54.980Z,94886.38
2022-07-31T09:03:21.898Z,94888.94
2022-07-31T09:05:49.048Z,94886.91
2022-07-31T09:08:15.900Z,94892.59
2022-07-31T09:10:47.730Z,94891.16
2022-07-31T09:13:18.738Z,94901.22
2022-07-31T09:15:46.528Z,94886.16
2022-07-31T09:18:17.829Z,94899.63
2022-07-31T09:21:05.033Z,94892.22
2022-07-31T09:23:34.951Z,94901.16
2022-07-31T09:26:05.609Z,94887.69
2022-07-31T09:28:39.248Z,94896.09
2022-07-31T09:31:08.879Z,94884.25
2022-07-31T09:33:42.310Z,94888.00
2022-07-31T09:36:10.556Z,94894.75
2022-07-31T09:38:42.142Z,94893.97
2022-07-31T09:41:56.671Z,94901.59
2022-07-31T09:44:09.876Z,94893.97
2022-07-31T09:46:47.040Z,94888.31
2022-07-31T09:49:14.904Z,94881.59
2022-07-31T09:51:47.181Z,94883.75
2022-07-31T09:54:24.530Z,94883.19
2022-07-31T09:56:51.625Z,94879.97
2022-07-31T09:59:18.777Z,94873.22
2022-07-31T10:01:49.374Z,94872.41
2022-07-31T10:04:21.585Z,94867.56
2022-07-31T10:06:51.237Z,94878.38
2022-07-31T10:09:21.897Z,94864.56
2022-07-31T10:11:50.580Z,94860.97
2022-07-31T10:14:32.459Z,94862.06
2022-07-31T10:17:04.961Z,94866.09
2022-07-31T10:19:38.402Z,94868.31
2022-07-31T10:22:06.938Z,94862.91
2022-07-31T10:24:41.058Z,94867.25
2022-07-31T10:27:09.810Z,94877.81
2022-07-31T10:29:39.433Z,94875.09
2022-07-31T10:32:09.877Z,94871.88
2022-07-31T10:34:37.476Z,94878.34
2022-07-31T10:37:18.817Z,94880.50
2022-07-31T10:40:11.358Z,94870.53
2022-07-31T10:42:52.987Z,94865.09
2022-07-31T10:45:19.861Z,94867.28
2022-07-31T10:48:00.809Z,94859.97
2022-07-31T10:50:30.597Z,94875.94
2022-07-31T10:53:15.480Z,94863.22
2022-07-31T10:55:43.544Z,94866.47
2022-07-31T10:58:19.364Z,94859.41
2022-07-31T11:00:46.188Z,94860.69
2022-07-31T11:03:22.425Z,94856.63
2022-07-31T11:06:00.829Z,94842.81
2022-07-31T11:08:28.574Z,94841.66
2022-07-31T11:10:57.418Z,94839.66
2022-07-31T11:13:33.623Z,94841.22
2022-07-31T11:16:06.089Z,94843.44
2022-07-31T11:18:34.663Z,94841.97
2022-07-31T11:21:22.422Z,94848.53
2022-07-31T11:23:56.179Z,94843.59
2022-07-31T11:26:33.727Z,94834.47
2022-07-31T11:30:00.679Z,94833.25
2022-07-31T11:32:01.846Z,94843.44
2022-07-31T11:34:28.593Z,94824.47
2022-07-31T11:36:55.437Z,94827.97
2022-07-31T11:39:28.321Z,94817.34
2022-07-31T11:42:07.413Z,94814.59
2022-07-31T11:44:35.196Z,94815.03
2022-07-31T11:47:02.489Z,94808.97
2022-07-31T11:49:41.687Z,94805.19
2022-07-31T11:52:30.776Z,94806.97
2022-07-31T11:55:09.599Z,94801.47
2022-07-31T11:57:51.762Z,94794.16
2022-07-31T12:00:26.711Z,94781.03
2022-07-31T12:02:58.111Z,94779.69
2022-07-31T12:05:38.636Z,94783.56
2022-07-31T12:08:08.109Z,94784.56
2022-07-31T12:10:35.519Z,94781.16
2022-07-31T12:13:02.963Z,94785.97
2022-07-31T12:15:29.892Z,94778.44
2022-07-31T12:18:05.498Z,94787.03
2022-07-31T12:20:36.254Z,94788.13
2022-07-31T12:23:05.629Z,94768.03
2022-07-31T12:25:45.714Z,94786.81
2022-07-31T12:28:14.612Z,94795.50
2022-07-31T12:30:42.872Z,94790.09
2022-07-31T12:33:11.556Z,94778.34
2022-07-31T12:35:56.475Z,94796.75
2022-07-31T12:38:45.551Z,94774.56
2022-07-31T12:41:13.865Z,94786.63
2022-07-31T12:43:50.018Z,94787.44
2022-07-31T12:46:37.959Z,94783.53
2022-07-31T12:49:06.737Z,94778.44
2022-07-31T12:51:44.922Z,94784.38
2022-07-31T12:54:16.033Z,94777.41
2022-07-31T12:56:43.406Z,94759.13
2022-07-31T12:59:12.252Z,94761.47
2022-07-31T13:01:39.471Z,94761.47
2022-07-31T13:04:07.906Z,94762.97
2022-07-31T13:06:45.765Z,94747.75
2022-07-31T13:09:12.570Z,94755.97
2022-07-31T13:11:46.536Z,94762.09
2022-07-31T13:14:20.065Z,94758.69
2022-07-31T13:16:48.574Z,94751.94
2022-07-31T13:19:15.619Z,94762.38
2022-07-31T13:21:49.065Z,94734.91
2022-07-31T13:24:21.206Z,94742.81
2022-07-31T13:26:49.526Z,94736.78
2022-07-31T13:29:17.343Z,94729.50
2022-07-31T13:31:44.530Z,94736.91
2022-07-31T13:34:12.128Z,94730.38
2022-07-31T13:36:39.925Z,94725.06
2022-07-31T13:39:10.892Z,94729.88
2022-07-31T13:41:39.485Z,94724.16
2022-07-31T13:44:07.686Z,94716.56
2022-07-31T13:46:35.136Z,94710.84
2022-07-31T13:49:03.199Z,94725.97
2022-07-31T13:51:30.291Z,94718.00
2022-07-31T13:53:57.327Z,94712.94
2022-07-31T13:56:41.762Z,94723.84
2022-07-31T13:59:11.794Z,94718.25
2022-07-31T14:02:03.188Z,94723.78
2022-07-31T14:04:31.391Z,94706.91
2022-07-31T14:07:03.362Z,94716.09
2022-07-31T14:09:31.627Z,94706.16
2022-07-31T14:11:58.450Z,94686.69
2022-07-31T14:14:25.439Z,94683.38
2022-07-31T14:16:52.371Z,94696.13
2022-07-31T14:19:20.823Z,94685.38
2022-07-31T14:21:56.235Z,94690.34
2022-07-31T14:24:36.958Z,94689.34
2022-07-31T14:27:04.411Z,94680.41
2022-07-31T14:29:31.247Z,94697.38
2022-07-31T14:32:03.258Z,94680.75
2022-07-31T14:34:35.514Z,94674.53
2022-07-31T14:37:02.754Z,94678.16
2022-07-31T14:39:30.158Z,94683.09
2022-07-31T14:41:56.982Z,94678.19
2022-07-31T14:44:23.916Z,94663.81
2022-07-31T14:46:56.278Z,94679.53
2022-07-31T14:49:23.194Z,94675.00
2022-07-31T14:51:50.039Z,94674.63
2022-07-31T14:54:16.914Z,94673.44
2022-07-31T14:57:00.646Z,94649.75
2022-07-31T14:59:32.046Z,94662.13
2022-07-31T15:01:59.250Z,94658.50
2022-07-31T15:04:26.495Z,94659.72
2022-07-31T15:07:12.674Z,94648.72
2022-07-31T15:09:40.530Z,94655.63
2022-07-31T15:12:07.968Z,94648.50
2022-07-31T15:14:35.231Z,94654.03
2022-07-31T15:17:02.132Z,94652.78
2022-07-31T15:19:29.038Z,94651.84
2022-07-31T15:22:10.283Z,94651.97
2022-07-31T15:24:48.241Z,94643.78
2022-07-31T15:27:18.717Z,94651.81
2022-07-31T15:30:03.611Z,94638.72
2022-07-31T15:32:32.769Z,94643.44
2022-07-31T15:34:59.616Z,94651.25
2022-07-31T15:37:26.421Z,94640.69
2022-07-31T15:40:02.809Z,94641.59
2022-07-31T15:42:38.310Z,94636.06
2022-07-31T15:45:07.691Z,94626.56
2022-07-31T15:47:34.823Z,94627.66
2022-07-31T15:50:01.729Z,94629.97
2022-07-31T15:52:28.611Z,94629.06
2022-07-31T15:54:55.546Z,94624.00
2022-07-31T15:57:23.702Z,94618.88
2022-07-31T15:59:54.393Z,94625.53
2022-07-31T16:02:23.633Z,94622.81
2022-07-31T16:04:54.849Z,94627.31
2022-07-31T16:08:30.115Z,94615.75
2022-07-31T16:10:16.540Z,94608.78
2022-07-31T16:12:47.257Z,94603.66
2022-07-31T16:15:16.634Z,94602.75
2022-07-31T16:17:45.002Z,94600.19
2022-07-31T16:20:25.802Z,94602.06
2022-07-31T16:23:02.569Z,94596.41
2022-07-31T16:25:32.181Z,94597.66
2022-07-31T16:28:02.721Z,94590.94
2022-07-31T16:30:29.581Z,94591.94
2022-07-31T16:32:56.658Z,94582.91
2022-07-31T16:35:26.417Z,94597.63
2022-07-31T16:37:54.389Z,94588.78
2022-07-31T16:40:29.166Z,94574.94
2022-07-31T16:43:47.560Z,94588.25
2022-07-31T16:45:51.036Z,94593.91
2022-07-31T16:48:21.000Z,94584.53
2022-07-31T16:50:54.442Z,94581.75
2022-07-31T16:54:10.367Z,94598.22
2022-07-31T16:56:15.413Z,94595.91
2022-07-31T16:58:43.850Z,94588.06
2022-07-31T17:01:57.394Z,94589.69
2022-07-31T17:04:01.844Z,94592.63
2022-07-31T17:06:38.548Z,94591.16
2022-07-31T17:09:17.446Z,94590.41
2022-07-31T17:11:53.183Z,94590.03
2022-07-31T17:14:23.221Z,94592.34
2022-07-31T17:16:52.051Z,94592.88
2022-07-31T17:19:35.884Z,94593.75
2022-07-31T17:22:04.044Z,94598.75
2022-07-31T17:24:32.049Z,94588.31
2022-07-31T17:26:59.883Z,94595.59
2022-07-31T17:29:26.737Z,94599.16
2022-07-31T17:31:53.570Z,94592.03
2022-07-31T17:34:20.403Z,94603.00
2022-07-31T17:36:50.240Z,94602.50
2022-07-31T17:39:17.268Z,94600.88
2022-07-31T17:41:44.330Z,94584.78
2022-07-31T17:44:11.178Z,94600.06
2022-07-31T17:46:48.117Z,94605.25
2022-07-31T17:49:19.437Z,94595.88
2022-07-31T17:51:58.935Z,94605.94
2022-07-31T17:54:31.719Z,94574.53
2022-07-31T17:56:59.873Z,94599.09
2022-07-31T17:59:27.704Z,94588.13
2022-07-31T18:02:01.118Z,94577.56
2022-07-31T18:04:34.209Z,94610.00
2022-07-31T18:07:04.496Z,94586.38
2022-07-31T18:09:32.363Z,94594.59
2022-07-31T18:12:02.988Z,94598.88
2022-07-31T18:14:30.178Z,94617.97
2022-07-31T18:16:57.044Z,94576.97
2022-07-31T18:19:23.971Z,94568.94
2022-07-31T18:21:52.217Z,94577.31
2022-07-31T18:24:20.883Z,94605.75
2022-07-31T18:26:48.053Z,94596.91
2022-07-31T18:29:17.112Z,94594.47
2022-07-31T18:31:44.822Z,94604.47
2022-07-31T18:34:13.118Z,94608.50
2022-07-31T18:36:40.530Z,94602.31
2022-07-31T18:39:07.760Z,94592.38
2022-07-31T18:41:34.673Z,94596.97
2022-07-31T18:44:02.079Z,94594.25
2022-07-31T18:46:29.140Z,94603.41
2022-07-31T18:48:56.785Z,94602.34
2022-07-31T18:51:25.606Z,94610.44
2022-07-31T18:53:54.759Z,94626.06
2022-07-31T18:56:24.045Z,94593.06
2022-07-31T18:58:52.210Z,94631.16
2022-07-31T19:01:19.161Z,94615.69
2022-07-31T19:03:46.045Z,94615.13
2022-07-31T19:06:13.002Z,94619.38
2022-07-31T19:08:45.046Z,94609.06
2022-07-31T19:11:12.601Z,94612.16
2022-07-31T19:13:39.543Z,94630.75
2022-07-31T19:16:06.913Z,94642.78
2022-07-31T19:18:34.221Z,94620.53
2022-07-31T19:21:23.619Z,94628.00
2022-07-31T19:23:49.751Z,94648.47
2022-07-31T19:26:16.789Z,94643.22
2022-07-31T19:28:43.936Z,94636.63
2022-07-31T19:31:13.419Z,94625.94
2022-07-31T19:33:41.234Z,94638.25
2022-07-31T19:36:10.754Z,94655.44
2022-07-31T19:38:37.654Z,94615.97
2022-07-31T19:41:04.626Z,94637.47
2022-07-31T19:43:31.638Z,94641.41
2022-07-31T19:46:10.042Z,94655.66
2022-07-31T19:48:44.481Z,94643.59
2022-07-31T19:51:13.315Z,94634.72
2022-07-31T19:53:41.822Z,94663.25
2022-07-31T19:56:10.791Z,94659.13
2022-07-31T19:58:41.341Z,94621.59
2022-07-31T20:01:09.992Z,94646.84
2022-07-31T20:03:37.165Z,94648.50
2022-07-31T20:08:36.859Z,94648.97
2022-07-31T20:11:05.459Z,94647.75
2022-07-31T20:13:34.457Z,94629.03
2022-07-31T20:16:01.763Z,94643.00
2022-07-31T20:18:29.404Z,94668.81
2022-07-31T20:21:04.914Z,94643.91
2022-07-31T20:23:34.429Z,94667.38
2022-07-31T20:26:01.628Z,94669.88
2022-07-31T20:28:28.603Z,94639.25
2022-07-31T20:30:55.579Z,94647.06
2022-07-31T20:33:22.584Z,94659.50
2022-07-31T20:35:50.256Z,94647.22
2022-07-31T20:38:22.445Z,94660.72
2022-07-31T20:40:54.545Z,94667.09
2022-07-31T20:43:27.368Z,94664.34
2022-07-31T20:45:59.638Z,94648.41
2022-07-31T20:48:32.598Z,94673.53
2022-07-31T20:51:02.620Z,94669.34
2022-07-31T20:53:35.195Z,94674.47
2022-07-31T20:56:02.309Z,94643.25
2022-07-31T20:58:29.234Z,94660.00
2022-07-31T21:00:56.344Z,94644.41
2022-07-31T21:03:23.525Z,94675.22
2022-07-31T21:05:50.495Z,94680.78
2022-07-31T21:08:18.718Z,94639.72
2022-07-31T21:10:45.755Z,94673.63
2022-07-31T21:13:13.114Z,94652.31
2022-07-31T21:15:43.129Z,94662.44
2022-07-31T21:18:17.124Z,94665.41
2022-07-31T21:20:50.195Z,94666.06
2022-07-31T21:23:20.287Z,94652.50
2022-07-31T21:25:47.394Z,94700.06
2022-07-31T21:28:14.694Z,94692.53
2022-07-31T21:30:41.810Z,94682.97
2022-07-31T21:33:09.888Z,94658.78
2022-07-31T21:35:40.072Z,94715.13
2022-07-31T21:38:12.665Z,94652.28
2022-07-31T21:40:40.833Z,94713.94
2022-07-31T21:43:09.246Z,94685.47
2022-07-31T21:45:50.622Z,94712.09
2022-07-31T21:48:25.660Z,94691.06
2022-07-31T21:50:54.452Z,94692.63
2022-07-31T21:53:21.700Z,94704.72
2022-07-31T21:55:48.792Z,94722.78
2022-07-31T21:58:16.116Z,94694.53
2022-07-31T22:00:44.596Z,94719.63
2022-07-31T22:03:11.893Z,94710.03
2022-07-31T22:05:57.629Z,94724.72
2022-07-31T22:08:24.661Z,94686.41
2022-07-31T22:10:52.416Z,94714.47
2022-07-31T22:13:20.036Z,94710.34
2022-07-31T22:15:58.906Z,94686.06
2022-07-31T22:18:33.603Z,94731.31
2022-07-31T22:21:05.188Z,94714.69
2022-07-31T22:23:32.616Z,94693.59
2022-07-31T22:26:00.172Z,94722.75
2022-07-31T22:28:28.261Z,94727.09
2022-07-31T22:30:56.371Z,94730.00
2022-07-31T22:33:24.066Z,94737.00
2022-07-31T22:35:59.803Z,94693.06
2022-07-31T22:38:29.353Z,94722.56
2022-07-31T22:40:59.552Z,94709.50
2022-07-31T22:44:12.897Z,94739.13
2022-07-31T22:46:15.048Z,94715.28
2022-07-31T22:48:42.246Z,94727.66
2022-07-31T22:51:10.834Z,94736.38
2022-07-31T22:53:42.514Z,94747.78
2022-07-31T22:56:09.388Z,94703.44
2022-07-31T22:58:41.366Z,94715.69
2022-07-31T23:01:08.190Z,94723.91
2022-07-31T23:03:35.030Z,94711.19
2022-07-31T23:06:02.626Z,94756.16
2022-07-31T23:08:54.623Z,94736.34
2022-07-31T23:11:24.787Z,94733.31
2022-07-31T23:13:52.143Z,94713.34
2022-07-31T23:16:20.591Z,94741.78
2022-07-31T23:18:48.510Z,94762.72
2022-07-31T23:21:15.623Z,94733.25
2022-07-31T23:23:48.998Z,94739.59
2022-07-31T23:26:19.526Z,94730.97
2022-07-31T23:28:47.740Z,94730.97
2022-07-31T23:31:17.892Z,94770.59
2022-07-31T23:33:45.851Z,94748.75
2022-07-31T23:36:13.631Z,94716.91
2022-07-31T23:38:41.657Z,94739.44
2022-07-31T23:41:09.417Z,94711.25
2022-07-31T23:43:39.200Z,94737.59
2022-07-31T23:46:08.914Z,94734.34
2022-07-31T23:48:36.089Z,94751.09
2022-07-31T23:51:03.225Z,94731.88
2022-07-31T23:53:30.147Z,94732.72
2022-07-31T23:56:03.338Z,94744.97
2022-07-31T23:58:31.817Z,94715.75
